createdAt,value
2023-04-12T00:03:26.967Z,8.84
2023-04-12T00:08:33.271Z,8.69
2023-04-12T00:13:36.076Z,8.51
2023-04-12T00:18:38.857Z,8.36
2023-04-12T00:23:41.582Z,8.23
2023-04-12T00:28:45.055Z,8.14
2023-04-12T00:33:47.911Z,8.05
2023-04-12T00:38:50.640Z,7.98
2023-04-12T00:43:53.372Z,7.92
2023-04-12T00:48:57.841Z,7.78
2023-04-12T00:54:01.659Z,7.65
2023-04-12T00:59:04.459Z,7.53
2023-04-12T01:04:07.824Z,7.43
2023-04-12T01:09:53.380Z,7.37
2023-04-12T01:15:14.793Z,7.32
2023-04-12T01:20:23.756Z,7.31
2023-04-12T01:25:29.248Z,7.29
2023-04-12T01:30:33.587Z,7.31
2023-04-12T01:35:37.812Z,7.33
2023-04-12T01:40:42.807Z,7.38
2023-04-12T01:45:46.903Z,7.45
2023-04-12T01:51:12.712Z,7.53
2023-04-12T01:56:18.148Z,7.63
2023-04-12T02:01:22.653Z,7.73
2023-04-12T02:06:26.801Z,7.81
2023-04-12T02:11:30.004Z,7.85
2023-04-12T02:16:34.411Z,7.86
2023-04-12T02:21:42.423Z,7.88
2023-04-12T02:26:46.040Z,7.86
2023-04-12T02:31:48.748Z,7.82
2023-04-12T02:36:51.490Z,7.81
2023-04-12T02:41:54.225Z,7.82
2023-04-12T02:46:57.046Z,7.85
2023-04-12T02:51:59.725Z,7.91
2023-04-12T02:57:02.488Z,8.00
2023-04-12T03:02:05.594Z,8.10
2023-04-12T03:07:08.959Z,8.20
2023-04-12T03:12:11.779Z,8.28
2023-04-12T03:17:14.673Z,8.39
2023-04-12T03:22:17.367Z,8.46
2023-04-12T03:27:20.174Z,8.53
2023-04-12T03:32:23.016Z,8.60
2023-04-12T03:37:26.410Z,8.61
2023-04-12T03:42:33.613Z,8.59
2023-04-12T03:47:37.325Z,8.59
2023-04-12T03:52:40.330Z,8.60
2023-04-12T03:57:43.137Z,8.61
2023-04-12T04:02:47.537Z,8.62
2023-04-12T04:07:51.284Z,8.60
2023-04-12T04:12:54.533Z,8.59
2023-04-12T04:17:57.318Z,8.61
2023-04-12T04:23:00.134Z,8.63
2023-04-12T04:28:02.927Z,8.67
2023-04-12T04:33:07.279Z,8.70
2023-04-12T04:38:10.472Z,8.71
2023-04-12T04:43:14.108Z,8.72
2023-04-12T04:48:18.894Z,8.77
2023-04-12T04:53:22.520Z,8.88
2023-04-12T04:58:25.803Z,9.01
2023-04-12T05:03:30.286Z,9.09
2023-04-12T05:08:33.518Z,9.15
2023-04-12T05:13:36.308Z,9.15
2023-04-12T05:18:39.054Z,9.10
2023-04-12T05:23:45.641Z,9.11
2023-04-12T05:28:48.418Z,9.12
2023-04-12T05:33:51.060Z,9.23
2023-04-12T05:38:53.948Z,9.44
2023-04-12T05:43:56.616Z,9.59
2023-04-12T05:48:59.536Z,9.66
2023-04-12T05:54:06.306Z,9.77
2023-04-12T05:59:11.168Z,10.07
2023-04-12T06:04:15.920Z,10.53
2023-04-12T06:09:19.150Z,10.94
2023-04-12T06:14:21.927Z,11.09
2023-04-12T06:19:24.764Z,11.17
2023-04-12T06:24:28.164Z,11.20
2023-04-12T06:29:30.974Z,11.28
2023-04-12T06:34:34.791Z,11.53
2023-04-12T06:39:37.778Z,11.98
2023-04-12T06:44:40.677Z,12.64
2023-04-12T06:49:43.474Z,13.12
2023-04-12T06:54:46.611Z,13.41
2023-04-12T06:59:49.451Z,13.97
2023-04-12T07:04:54.188Z,14.37
2023-04-12T07:09:57.354Z,14.35
2023-04-12T07:15:00.562Z,14.97
2023-04-12T07:20:03.696Z,16.37
2023-04-12T07:25:10.365Z,16.97
2023-04-12T07:30:13.684Z,16.73
2023-04-12T07:35:16.607Z,16.69
2023-04-12T07:40:19.527Z,16.46
2023-04-12T07:45:25.158Z,16.58
2023-04-12T07:50:28.102Z,16.92
2023-04-12T07:55:30.972Z,17.45
2023-04-12T08:00:34.583Z,18.25
2023-04-12T08:05:37.640Z,19.30
2023-04-12T08:10:40.943Z,20.64
2023-04-12T08:15:43.997Z,23.25
2023-04-12T08:20:47.244Z,24.78
2023-04-12T08:25:50.136Z,25.48
2023-04-12T08:30:52.894Z,25.11
2023-04-12T08:35:56.265Z,24.70
2023-04-12T08:40:59.406Z,24.64
2023-04-12T08:46:02.240Z,26.31
2023-04-12T08:51:06.678Z,28.29
2023-04-12T08:56:13.881Z,30.33
2023-04-12T09:01:18.721Z,31.35
2023-04-12T09:06:21.670Z,32.07
2023-04-12T09:11:27.351Z,32.03
2023-04-12T09:16:41.998Z,32.45
2023-04-12T09:21:56.343Z,32.86
2023-04-12T09:27:06.875Z,32.89
2023-04-12T09:32:09.637Z,32.54
2023-04-12T09:37:14.917Z,32.75
2023-04-12T09:42:29.960Z,32.73
2023-04-12T09:47:39.728Z,33.02
2023-04-12T09:52:43.843Z,33.31
2023-04-12T09:57:49.652Z,33.25
2023-04-12T10:02:57.028Z,32.87
2023-04-12T10:08:00.350Z,33.54
2023-04-12T10:13:03.564Z,34.13
2023-04-12T10:18:07.410Z,33.24
2023-04-12T10:23:10.989Z,32.71
2023-04-12T10:28:19.602Z,33.09
2023-04-12T10:33:27.824Z,32.88
2023-04-12T10:38:37.499Z,32.58
2023-04-12T10:43:44.809Z,32.22
2023-04-12T10:48:54.306Z,32.81
2023-04-12T10:54:09.736Z,33.29
2023-04-12T10:59:13.616Z,33.14
2023-04-12T11:04:21.984Z,32.59
2023-04-12T11:09:35.458Z,32.68
2023-04-12T11:14:39.303Z,33.01
2023-04-12T11:19:52.549Z,32.89
2023-04-12T11:24:57.440Z,32.67
2023-04-12T11:30:02.229Z,32.66
2023-04-12T11:35:06.289Z,32.62
2023-04-12T11:40:09.989Z,30.65
2023-04-12T11:45:18.840Z,29.68
2023-04-12T11:50:30.152Z,30.70
2023-04-12T11:55:32.964Z,31.01
2023-04-12T12:00:36.392Z,31.41
2023-04-12T12:05:41.307Z,31.32
2023-04-12T12:10:59.927Z,31.10
2023-04-12T12:16:08.606Z,30.74
2023-04-12T12:21:15.065Z,30.73
2023-04-12T12:26:25.398Z,30.65
2023-04-12T12:31:29.376Z,30.85
2023-04-12T12:36:37.562Z,30.85
2023-04-12T12:41:41.298Z,30.33
2023-04-12T12:46:55.322Z,29.87
2023-04-12T12:52:03.497Z,29.30
2023-04-12T12:57:06.194Z,29.31
2023-04-12T13:02:09.173Z,29.38
2023-04-12T13:07:12.185Z,29.43
2023-04-12T13:12:16.129Z,29.24
2023-04-12T13:17:19.012Z,28.91
2023-04-12T13:22:21.850Z,28.32
2023-04-12T13:27:24.634Z,26.90
2023-04-12T13:32:27.505Z,25.85
2023-04-12T13:37:30.719Z,23.87
2023-04-12T13:42:33.590Z,22.09
2023-04-12T13:47:36.628Z,21.39
2023-04-12T13:52:40.036Z,20.99
2023-04-12T13:57:43.380Z,20.33
2023-04-12T14:02:46.290Z,19.57
2023-04-12T14:07:50.116Z,19.68
2023-04-12T14:12:52.810Z,19.60
2023-04-12T14:17:56.067Z,20.40
2023-04-12T14:22:59.344Z,21.34
2023-04-12T14:28:02.055Z,21.99
2023-04-12T14:33:04.868Z,21.97
2023-04-12T14:38:09.163Z,21.27
2023-04-12T14:43:11.981Z,20.92
2023-04-12T14:48:14.695Z,20.76
2023-04-12T14:53:18.863Z,20.48
2023-04-12T14:58:21.824Z,20.17
2023-04-12T15:03:26.991Z,19.70
2023-04-12T15:08:29.934Z,19.32
2023-04-12T15:13:34.537Z,18.70
2023-04-12T15:18:39.480Z,18.29
2023-04-12T15:23:42.272Z,18.35
2023-04-12T15:28:45.022Z,18.61
2023-04-12T15:33:49.793Z,18.93
2023-04-12T15:38:54.514Z,18.85
2023-04-12T15:43:57.725Z,18.46
2023-04-12T15:49:01.657Z,18.12
2023-04-12T15:54:04.409Z,17.65
2023-04-12T15:59:09.196Z,17.18
2023-04-12T16:04:13.113Z,16.65
2023-04-12T16:09:16.802Z,16.06
2023-04-12T16:14:19.610Z,15.44
2023-04-12T16:19:23.008Z,14.98
2023-04-12T16:24:25.835Z,14.69
2023-04-12T16:29:29.139Z,14.41
2023-04-12T16:34:31.867Z,14.14
2023-04-12T16:39:35.359Z,13.96
2023-04-12T16:44:38.687Z,13.75
2023-04-12T16:49:41.837Z,13.57
2023-04-12T16:54:44.824Z,13.43
2023-04-12T16:59:47.697Z,13.30
2023-04-12T17:04:51.294Z,13.12
2023-04-12T17:09:55.052Z,12.90
2023-04-12T17:14:58.078Z,12.64
2023-04-12T17:20:01.258Z,12.37
2023-04-12T17:25:05.731Z,12.10
2023-04-12T17:30:12.401Z,11.85
2023-04-12T17:35:16.141Z,11.61
2023-04-12T17:40:19.335Z,11.38
2023-04-12T17:45:23.654Z,11.19
2023-04-12T17:50:26.765Z,11.03
2023-04-12T17:55:29.480Z,10.88
2023-04-12T18:00:32.256Z,10.72
2023-04-12T18:05:35.479Z,10.57
2023-04-12T18:10:38.201Z,10.45
2023-04-12T18:15:40.934Z,10.33
2023-04-12T18:20:43.769Z,10.24
2023-04-12T18:25:46.695Z,10.15
2023-04-12T18:30:49.702Z,10.11
2023-04-12T18:35:53.008Z,10.07
2023-04-12T18:40:55.956Z,10.05
2023-04-12T18:45:59.281Z,10.00
2023-04-12T18:51:02.031Z,9.92
2023-04-12T18:56:12.248Z,9.80
2023-04-12T19:01:15.601Z,9.65
2023-04-12T19:06:18.673Z,9.52
2023-04-12T19:11:21.733Z,9.41
2023-04-12T19:16:24.777Z,9.30
2023-04-12T19:21:31.980Z,9.18
2023-04-12T19:26:40.086Z,9.04
2023-04-12T19:31:47.646Z,8.91
2023-04-12T19:36:50.892Z,8.82
2023-04-12T19:41:53.675Z,8.77
2023-04-12T19:46:56.744Z,8.73
2023-04-12T19:51:59.935Z,8.69
2023-04-12T19:57:05.278Z,8.64
2023-04-12T20:02:08.229Z,8.58
2023-04-12T20:07:11.710Z,8.48
2023-04-12T20:12:16.958Z,8.36
2023-04-12T20:17:20.299Z,8.28
2023-04-12T20:22:23.415Z,8.19
2023-04-12T20:27:27.242Z,8.12
2023-04-12T20:32:30.280Z,8.09
2023-04-12T20:37:33.955Z,8.07
2023-04-12T20:42:37.272Z,8.08
2023-04-12T20:47:40.117Z,8.10
2023-04-12T20:52:43.065Z,8.14
2023-04-12T20:57:45.966Z,8.16
2023-04-12T21:02:48.974Z,8.13
2023-04-12T21:07:51.931Z,8.07
2023-04-12T21:12:54.960Z,7.98
2023-04-12T21:17:58.453Z,7.83
2023-04-12T21:23:04.184Z,7.70
2023-04-12T21:28:08.106Z,7.61
2023-04-12T21:33:14.512Z,7.55
2023-04-12T21:38:18.177Z,7.55
2023-04-12T21:43:20.925Z,7.56
2023-04-12T21:48:23.714Z,7.59
2023-04-12T21:53:27.329Z,7.64
2023-04-12T21:58:30.114Z,7.73
2023-04-12T22:03:32.963Z,7.81
2023-04-12T22:08:35.844Z,7.87
2023-04-12T22:13:46.231Z,7.92
2023-04-12T22:18:50.361Z,7.94
2023-04-12T22:23:55.342Z,7.92
2023-04-12T22:28:58.331Z,7.88
2023-04-12T22:34:01.636Z,7.87
2023-04-12T22:39:04.937Z,7.89
2023-04-12T22:44:07.996Z,7.85
2023-04-12T22:49:10.847Z,7.72
2023-04-12T22:54:13.584Z,7.52
2023-04-12T22:59:20.223Z,7.34
2023-04-12T23:04:23.045Z,7.21
2023-04-12T23:09:25.744Z,7.14
2023-04-12T23:14:29.874Z,7.10
2023-04-12T23:19:33.276Z,7.05
2023-04-12T23:24:37.132Z,6.95
2023-04-12T23:29:40.943Z,6.77
2023-04-12T23:34:44.363Z,6.58
2023-04-12T23:39:47.033Z,6.43
2023-04-12T23:44:49.771Z,6.29
2023-04-12T23:49:52.668Z,6.18
2023-04-12T23:54:55.380Z,6.06
2023-04-12T23:59:58.195Z,5.99
